createdAt,value
2022-11-24T00:01:24.823Z,8.30
2022-11-24T00:03:59.354Z,9.03
2022-11-24T00:06:28.691Z,8.63
2022-11-24T00:08:57.955Z,9.00
2022-11-24T00:11:29.012Z,7.63
2022-11-24T00:13:58.823Z,7.90
2022-11-24T00:16:31.287Z,7.97
2022-11-24T00:19:02.691Z,8.23
2022-11-24T00:21:33.221Z,8.10
2022-11-24T00:24:01.855Z,7.87
2022-11-24T00:26:32.895Z,8.30
2022-11-24T00:29:04.228Z,8.87
2022-11-24T00:31:37.546Z,8.00
2022-11-24T00:34:08.752Z,8.23
2022-11-24T00:36:38.225Z,8.00
2022-11-24T00:39:08.919Z,7.70
2022-11-24T00:41:37.092Z,8.47
2022-11-24T00:44:05.773Z,8.03
2022-11-24T00:46:35.893Z,7.63
2022-11-24T00:49:04.799Z,7.90
2022-11-24T00:51:33.269Z,7.70
2022-11-24T00:54:02.432Z,7.40
2022-11-24T00:56:31.625Z,7.43
2022-11-24T00:58:59.899Z,7.80
2022-11-24T01:01:31.064Z,7.47
2022-11-24T01:04:02.472Z,7.87
2022-11-24T01:06:32.536Z,7.93
2022-11-24T01:09:00.884Z,8.07
2022-11-24T01:11:53.174Z,8.50
2022-11-24T01:14:22.995Z,8.53
2022-11-24T01:16:51.236Z,8.00
2022-11-24T01:19:21.472Z,8.13
2022-11-24T01:21:49.650Z,8.63
2022-11-24T01:24:18.206Z,7.97
2022-11-24T01:26:46.426Z,8.87
2022-11-24T01:29:14.642Z,7.83
2022-11-24T01:31:42.868Z,7.50
2022-11-24T01:34:11.101Z,8.03
2022-11-24T01:36:40.865Z,7.80
2022-11-24T01:39:09.059Z,7.27
2022-11-24T01:41:37.225Z,7.60
2022-11-24T01:44:23.713Z,7.50
2022-11-24T01:46:57.596Z,7.43
2022-11-24T01:49:40.471Z,7.83
2022-11-24T01:52:16.682Z,8.27
2022-11-24T01:54:50.856Z,7.57
2022-11-24T01:57:26.026Z,8.30
2022-11-24T01:59:59.481Z,8.47
2022-11-24T02:02:30.813Z,7.30
2022-11-24T02:05:09.267Z,8.23
2022-11-24T02:07:39.240Z,8.10
2022-11-24T02:10:13.944Z,8.40
2022-11-24T02:12:46.899Z,8.40
2022-11-24T02:15:16.991Z,8.37
2022-11-24T02:17:45.513Z,7.70
2022-11-24T02:20:16.428Z,7.87
2022-11-24T02:22:53.607Z,8.27
2022-11-24T02:25:35.480Z,7.57
2022-11-24T02:28:09.952Z,8.47
2022-11-24T02:30:38.159Z,8.70
2022-11-24T02:33:06.437Z,7.70
2022-11-24T02:35:35.699Z,8.30
2022-11-24T02:38:03.915Z,7.80
2022-11-24T02:40:32.635Z,8.20
2022-11-24T02:43:08.722Z,7.60
2022-11-24T02:45:36.876Z,7.57
2022-11-24T02:48:05.520Z,7.20
2022-11-24T02:50:33.699Z,7.50
2022-11-24T02:53:01.849Z,8.60
2022-11-24T02:55:30.009Z,8.40
2022-11-24T02:57:58.176Z,8.60
2022-11-24T03:00:27.710Z,7.87
2022-11-24T03:02:55.916Z,9.00
2022-11-24T03:05:24.409Z,8.50
2022-11-24T03:07:52.618Z,8.50
2022-11-24T03:10:21.018Z,9.10
2022-11-24T03:12:49.186Z,7.60
2022-11-24T03:15:17.535Z,8.00
2022-11-24T03:17:47.043Z,8.37
2022-11-24T03:20:15.226Z,8.40
2022-11-24T03:22:43.625Z,8.43
2022-11-24T03:25:11.801Z,8.93
2022-11-24T03:27:39.979Z,8.63
2022-11-24T03:30:10.008Z,8.47
2022-11-24T03:32:38.128Z,8.90
2022-11-24T03:35:09.019Z,8.50
2022-11-24T03:37:37.328Z,8.80
2022-11-24T03:40:07.121Z,9.50
2022-11-24T03:42:35.318Z,8.13
2022-11-24T03:45:29.830Z,9.60
2022-11-24T03:47:52.390Z,8.80
2022-11-24T03:50:21.912Z,8.63
2022-11-24T03:52:50.043Z,9.00
2022-11-24T03:55:18.325Z,9.70
2022-11-24T03:57:46.469Z,8.60
2022-11-24T04:00:15.726Z,9.27
2022-11-24T04:02:44.079Z,8.47
2022-11-24T04:05:12.514Z,9.57
2022-11-24T04:07:42.123Z,9.27
2022-11-24T04:10:10.603Z,8.80
2022-11-24T04:12:46.522Z,9.23
2022-11-24T04:15:17.684Z,9.63
2022-11-24T04:17:48.227Z,9.40
2022-11-24T04:20:17.977Z,9.30
2022-11-24T04:22:47.586Z,9.73
2022-11-24T04:25:17.456Z,9.67
2022-11-24T04:27:45.723Z,9.83
2022-11-24T04:30:14.218Z,9.43
2022-11-24T04:32:42.360Z,9.30
2022-11-24T04:35:11.241Z,9.37
2022-11-24T04:37:39.416Z,9.90
2022-11-24T04:40:12.454Z,10.20
2022-11-24T04:42:40.634Z,8.80
2022-11-24T04:45:09.797Z,9.70
2022-11-24T04:47:38.270Z,9.50
2022-11-24T04:50:08.724Z,9.30
2022-11-24T04:52:36.858Z,9.43
2022-11-24T04:55:05.344Z,9.60
2022-11-24T04:57:34.894Z,8.63
2022-11-24T05:00:03.060Z,9.87
2022-11-24T05:02:31.232Z,9.17
2022-11-24T05:04:59.378Z,8.43
2022-11-24T05:07:27.503Z,9.30
2022-11-24T05:10:12.875Z,11.20
2022-11-24T05:12:45.755Z,10.10
2022-11-24T05:15:16.700Z,9.77
2022-11-24T05:17:44.796Z,10.00
2022-11-24T05:20:13.065Z,9.37
2022-11-24T05:22:41.240Z,10.33
2022-11-24T05:25:10.240Z,10.20
2022-11-24T05:27:38.615Z,9.83
2022-11-24T05:30:10.118Z,9.40
2022-11-24T05:32:38.189Z,9.87
2022-11-24T05:35:09.651Z,10.13
2022-11-24T05:37:38.761Z,10.83
2022-11-24T05:40:09.856Z,11.00
2022-11-24T05:42:47.686Z,10.93
2022-11-24T05:45:21.572Z,10.83
2022-11-24T05:47:50.987Z,10.07
2022-11-24T05:50:22.352Z,10.07
2022-11-24T05:52:51.009Z,9.60
2022-11-24T05:55:20.474Z,10.27
2022-11-24T05:57:48.822Z,10.63
2022-11-24T06:00:20.101Z,9.77
2022-11-24T06:02:49.112Z,9.83
2022-11-24T06:05:17.704Z,9.73
2022-11-24T06:07:46.005Z,9.80
2022-11-24T06:10:14.715Z,9.93
2022-11-24T06:12:42.931Z,9.03
2022-11-24T06:15:12.215Z,11.80
2022-11-24T06:17:42.324Z,10.73
2022-11-24T06:20:12.435Z,10.30
2022-11-24T06:22:40.510Z,9.33
2022-11-24T06:25:10.005Z,9.47
2022-11-24T06:27:38.116Z,9.57
2022-11-24T06:30:07.577Z,10.83
2022-11-24T06:32:35.693Z,9.13
2022-11-24T06:35:06.425Z,27.87
2022-11-24T06:37:37.683Z,9.80
2022-11-24T06:40:09.022Z,9.73
2022-11-24T06:42:37.477Z,10.10
2022-11-24T06:45:09.333Z,8.97
2022-11-24T06:47:37.977Z,9.17
2022-11-24T06:50:10.532Z,9.00
2022-11-24T06:52:38.639Z,9.53
2022-11-24T06:55:08.421Z,9.77
2022-11-24T06:57:36.553Z,8.97
2022-11-24T07:00:06.473Z,8.93
2022-11-24T07:02:35.078Z,10.07
2022-11-24T07:05:03.221Z,9.30
2022-11-24T07:07:32.786Z,9.47
2022-11-24T07:10:01.032Z,9.17
2022-11-24T07:12:29.246Z,8.70
2022-11-24T07:14:57.341Z,8.43
2022-11-24T07:17:25.507Z,8.53
2022-11-24T07:19:53.597Z,8.53
2022-11-24T07:22:21.797Z,8.47
2022-11-24T07:24:51.270Z,7.73
2022-11-24T07:27:19.390Z,8.37
2022-11-24T07:29:47.494Z,8.57
2022-11-24T07:32:16.095Z,8.83
2022-11-24T07:34:44.253Z,7.90
2022-11-24T07:37:12.397Z,7.57
2022-11-24T07:39:40.488Z,8.03
2022-11-24T07:42:11.372Z,7.53
2022-11-24T07:44:40.629Z,7.60
2022-11-24T07:47:08.867Z,7.00
2022-11-24T07:49:36.997Z,7.00
2022-11-24T07:52:05.852Z,7.73
2022-11-24T07:54:34.157Z,7.50
2022-11-24T07:57:02.497Z,7.47
2022-11-24T07:59:32.022Z,7.80
2022-11-24T08:02:00.710Z,7.47
2022-11-24T08:04:28.910Z,7.27
2022-11-24T08:06:57.041Z,7.83
2022-11-24T08:09:25.152Z,7.07
2022-11-24T08:11:53.302Z,7.20
2022-11-24T08:14:21.396Z,6.33
2022-11-24T08:16:50.907Z,6.80
2022-11-24T08:19:19.037Z,7.50
2022-11-24T08:21:47.143Z,7.20
2022-11-24T08:24:16.912Z,7.07
2022-11-24T08:26:45.283Z,6.77
2022-11-24T08:29:13.383Z,6.20
2022-11-24T08:31:41.642Z,7.50
2022-11-24T08:34:11.784Z,6.97
2022-11-24T08:36:39.954Z,7.07
2022-11-24T08:39:08.114Z,7.00
2022-11-24T08:41:36.284Z,6.93
2022-11-24T08:44:04.705Z,6.93
2022-11-24T08:46:32.970Z,6.67
2022-11-24T08:49:01.159Z,6.80
2022-11-24T08:51:31.035Z,7.83
2022-11-24T08:54:02.611Z,6.77
2022-11-24T08:56:32.788Z,6.80
2022-11-24T08:59:01.759Z,8.00
2022-11-24T09:01:30.547Z,7.70
2022-11-24T09:03:59.313Z,6.60
2022-11-24T09:06:31.529Z,6.53
2022-11-24T09:09:00.727Z,6.77
2022-11-24T09:11:29.264Z,5.97
2022-11-24T09:13:57.936Z,6.63
2022-11-24T09:16:29.295Z,6.23
2022-11-24T09:18:59.390Z,5.70
2022-11-24T09:21:28.410Z,6.07
2022-11-24T09:23:58.705Z,6.37
2022-11-24T09:26:29.837Z,6.07
2022-11-24T09:29:00.549Z,5.20
2022-11-24T09:31:33.469Z,4.93
2022-11-24T09:34:02.671Z,5.10
2022-11-24T09:36:31.803Z,5.33
2022-11-24T09:39:01.645Z,4.80
2022-11-24T09:42:03.729Z,4.53
2022-11-24T09:45:10.183Z,4.63
2022-11-24T09:47:59.011Z,4.97
2022-11-24T09:50:31.153Z,4.67
2022-11-24T09:53:06.931Z,4.73
2022-11-24T09:55:43.024Z,4.97
2022-11-24T09:58:20.540Z,4.37
2022-11-24T10:00:53.252Z,4.40
2022-11-24T10:03:32.982Z,4.47
2022-11-24T10:06:06.528Z,4.33
2022-11-24T10:08:58.697Z,5.03
2022-11-24T10:11:39.226Z,4.50
2022-11-24T10:14:53.652Z,5.07
2022-11-24T10:17:58.227Z,4.80
2022-11-24T10:20:49.847Z,4.60
2022-11-24T10:23:39.811Z,4.00
2022-11-24T10:26:17.271Z,4.53
2022-11-24T10:28:55.752Z,4.03
2022-11-24T10:31:31.651Z,4.00
2022-11-24T10:34:11.278Z,4.20
2022-11-24T10:36:49.350Z,3.70
2022-11-24T10:39:28.958Z,4.40
2022-11-24T10:42:07.076Z,5.20
2022-11-24T10:44:36.590Z,4.23
2022-11-24T10:47:04.688Z,4.23
2022-11-24T10:49:34.951Z,5.10
2022-11-24T10:52:12.759Z,5.30
2022-11-24T10:54:56.894Z,4.43
2022-11-24T10:57:34.104Z,4.20
2022-11-24T11:00:26.029Z,4.43
2022-11-24T11:03:18.090Z,4.10
2022-11-24T11:05:53.248Z,3.73
2022-11-24T11:08:26.391Z,4.13
2022-11-24T11:11:19.403Z,4.70
2022-11-24T11:14:00.072Z,4.90
2022-11-24T11:16:39.879Z,4.37
2022-11-24T11:20:00.369Z,4.33
2022-11-24T11:22:29.569Z,4.70
2022-11-24T11:25:19.382Z,3.53
2022-11-24T11:27:48.238Z,4.30
2022-11-24T11:36:17.007Z,6.53
2022-11-24T11:38:48.113Z,5.70
2022-11-24T11:41:29.345Z,4.90
2022-11-24T11:44:22.603Z,4.77
2022-11-24T11:46:50.812Z,5.50
2022-11-24T11:49:20.432Z,5.20
2022-11-24T11:52:16.794Z,4.80
2022-11-24T11:55:18.685Z,4.30
2022-11-24T11:58:00.102Z,4.30
2022-11-24T12:00:30.847Z,4.80
2022-11-24T12:03:51.414Z,4.83
2022-11-24T12:06:43.293Z,4.90
2022-11-24T12:09:27.951Z,5.47
2022-11-24T12:12:22.571Z,5.10
2022-11-24T12:15:10.713Z,4.53
2022-11-24T12:17:46.005Z,4.63
2022-11-24T12:20:48.063Z,4.80
2022-11-24T12:23:30.347Z,4.27
2022-11-24T12:26:10.440Z,4.47
2022-11-24T12:28:53.490Z,4.20
2022-11-24T12:31:32.060Z,4.30
2022-11-24T12:34:22.589Z,3.90
2022-11-24T12:37:18.187Z,3.40
2022-11-24T12:39:56.614Z,3.00
2022-11-24T12:42:40.296Z,3.23
2022-11-24T12:45:18.821Z,2.73
2022-11-24T12:48:08.374Z,2.77
2022-11-24T12:50:40.255Z,3.60
2022-11-24T12:53:16.987Z,3.93
2022-11-24T12:55:48.017Z,2.93
2022-11-24T12:58:26.343Z,3.27
2022-11-24T13:01:14.845Z,3.80
2022-11-24T13:04:02.040Z,3.00
2022-11-24T13:06:43.101Z,3.17
2022-11-24T13:09:15.302Z,3.00
2022-11-24T13:11:46.726Z,3.03
2022-11-24T13:14:23.293Z,2.90
2022-11-24T13:17:27.867Z,3.43
2022-11-24T13:19:47.459Z,3.70
2022-11-24T13:22:24.262Z,3.00
2022-11-24T13:25:19.321Z,3.83
2022-11-24T13:27:52.986Z,3.30
2022-11-24T13:31:08.325Z,3.10
2022-11-24T13:33:40.810Z,2.90
2022-11-24T13:36:32.319Z,2.67
2022-11-24T13:39:02.460Z,3.50
2022-11-24T13:42:43.290Z,3.07
2022-11-24T13:45:04.133Z,3.63
2022-11-24T13:47:42.505Z,3.70
2022-11-24T13:51:04.445Z,3.73
2022-11-24T13:53:38.268Z,3.40
2022-11-24T13:56:23.344Z,2.93
2022-11-24T13:58:54.885Z,3.83
2022-11-24T14:01:28.215Z,3.80
2022-11-24T14:04:34.991Z,3.77
2022-11-24T14:07:09.530Z,4.00
2022-11-24T14:09:44.449Z,4.03
2022-11-24T14:12:19.017Z,3.20
2022-11-24T14:14:49.715Z,3.33
2022-11-24T14:17:24.757Z,3.03
2022-11-24T14:19:55.686Z,2.90
2022-11-24T14:22:27.650Z,3.83
2022-11-24T14:24:59.247Z,3.57
2022-11-24T14:27:35.119Z,3.50
2022-11-24T14:30:19.105Z,3.87
2022-11-24T14:32:57.172Z,3.53
2022-11-24T14:35:28.824Z,4.30
2022-11-24T14:37:57.385Z,4.00
2022-11-24T14:40:43.869Z,3.30
2022-11-24T14:43:22.314Z,2.87
2022-11-24T14:45:54.906Z,3.13
2022-11-24T14:48:29.084Z,3.17
2022-11-24T14:51:09.721Z,3.50
2022-11-24T14:53:41.811Z,3.27
2022-11-24T14:56:25.815Z,4.30
2022-11-24T14:58:55.327Z,3.57
2022-11-24T15:01:32.745Z,3.40
2022-11-24T15:04:46.417Z,3.87
2022-11-24T15:07:20.638Z,3.83
2022-11-24T15:09:57.667Z,3.90
2022-11-24T15:12:34.207Z,4.03
2022-11-24T15:15:06.208Z,3.40
2022-11-24T15:17:35.198Z,4.43
2022-11-24T15:20:12.590Z,3.80
2022-11-24T15:22:43.380Z,3.90
2022-11-24T15:25:31.028Z,3.87
2022-11-24T15:27:59.326Z,4.17
2022-11-24T15:30:28.613Z,3.67
2022-11-24T15:32:58.999Z,4.07
2022-11-24T15:35:33.608Z,4.10
2022-11-24T15:38:03.894Z,4.10
2022-11-24T15:40:32.413Z,3.93
2022-11-24T15:43:05.040Z,4.23
2022-11-24T15:45:35.716Z,3.60
2022-11-24T15:48:03.790Z,4.30
2022-11-24T15:50:33.322Z,4.83
2022-11-24T15:53:01.448Z,5.07
2022-11-24T15:55:29.749Z,7.20
2022-11-24T15:57:57.832Z,8.37
2022-11-24T16:00:26.079Z,7.10
2022-11-24T16:02:54.505Z,5.77
2022-11-24T16:05:22.594Z,6.20
2022-11-24T16:07:51.979Z,5.07
2022-11-24T16:10:27.342Z,5.13
2022-11-24T16:12:55.449Z,4.83
2022-11-24T16:15:23.898Z,4.20
2022-11-24T16:17:52.332Z,4.73
2022-11-24T16:20:21.190Z,3.73
2022-11-24T16:22:49.262Z,4.10
2022-11-24T16:25:18.869Z,4.07
2022-11-24T16:27:47.007Z,4.60
2022-11-24T16:30:15.579Z,5.33
2022-11-24T16:32:43.663Z,4.30
2022-11-24T16:35:11.957Z,4.57
2022-11-24T16:37:40.112Z,4.20
2022-11-24T16:40:09.766Z,4.60
2022-11-24T16:42:39.194Z,4.53
2022-11-24T16:45:08.712Z,4.63
2022-11-24T16:47:40.753Z,5.07
2022-11-24T16:50:11.250Z,4.37
2022-11-24T16:52:40.007Z,4.90
2022-11-24T16:55:09.626Z,5.60
2022-11-24T16:57:39.052Z,5.43
2022-11-24T17:00:09.601Z,5.37
2022-11-24T17:02:37.883Z,4.87
2022-11-24T17:05:07.024Z,5.53
2022-11-24T17:07:35.270Z,5.13
2022-11-24T17:10:03.385Z,4.70
2022-11-24T17:12:31.436Z,6.10
2022-11-24T17:15:31.053Z,5.90
2022-11-24T17:18:16.356Z,5.13
2022-11-24T17:20:36.968Z,5.67
2022-11-24T17:23:05.019Z,5.83
2022-11-24T17:25:34.075Z,6.70
2022-11-24T17:28:02.225Z,6.33
2022-11-24T17:30:31.630Z,6.27
2022-11-24T17:32:59.696Z,5.93
2022-11-24T17:35:27.720Z,5.80
2022-11-24T17:37:56.986Z,6.10
2022-11-24T17:40:29.332Z,6.80
2022-11-24T17:43:00.331Z,7.20
2022-11-24T17:45:30.358Z,8.13
2022-11-24T17:48:00.706Z,8.87
2022-11-24T17:50:28.801Z,8.53
2022-11-24T17:52:56.876Z,8.60
2022-11-24T17:55:24.913Z,8.30
2022-11-24T17:57:53.028Z,9.33
2022-11-24T18:00:21.631Z,10.23
2022-11-24T18:02:49.782Z,12.37
2022-11-24T18:05:19.367Z,11.10
2022-11-24T18:07:47.580Z,10.70
2022-11-24T18:10:15.807Z,10.00
2022-11-24T18:12:43.881Z,9.70
2022-11-24T18:15:12.372Z,9.80
2022-11-24T18:17:40.483Z,9.63
2022-11-24T18:20:10.711Z,9.03
2022-11-24T18:23:04.686Z,9.00
2022-11-24T18:25:29.560Z,8.97
2022-11-24T18:27:57.932Z,7.97
2022-11-24T18:30:25.993Z,8.93
2022-11-24T18:32:54.035Z,9.43
2022-11-24T18:35:22.058Z,9.40
2022-11-24T18:37:51.471Z,9.50
2022-11-24T18:40:19.671Z,11.83
2022-11-24T18:42:47.701Z,13.10
2022-11-24T18:45:15.848Z,11.93
2022-11-24T18:47:43.905Z,10.87
2022-11-24T18:50:12.322Z,9.60
2022-11-24T18:52:40.378Z,8.83
2022-11-24T18:55:10.997Z,8.50
2022-11-24T18:57:39.064Z,8.83
2022-11-24T19:00:09.165Z,9.93
2022-11-24T19:02:37.330Z,8.80
2022-11-24T19:05:06.126Z,9.80
2022-11-24T19:07:34.316Z,9.10
2022-11-24T19:10:02.517Z,9.63
2022-11-24T19:12:32.013Z,9.90
2022-11-24T19:15:00.240Z,9.57
2022-11-24T19:17:28.530Z,10.30
2022-11-24T19:19:56.668Z,10.37
2022-11-24T19:22:24.815Z,10.40
2022-11-24T19:24:52.921Z,9.97
2022-11-24T19:27:21.853Z,9.70
2022-11-24T19:29:51.321Z,10.23
2022-11-24T19:32:20.183Z,9.90
2022-11-24T19:34:48.295Z,10.10
2022-11-24T19:37:16.459Z,9.47
2022-11-24T19:39:44.562Z,9.00
2022-11-24T19:42:12.695Z,9.83
2022-11-24T19:44:40.837Z,9.10
2022-11-24T19:47:10.317Z,8.67
2022-11-24T19:49:38.496Z,7.97
2022-11-24T19:52:06.635Z,8.97
2022-11-24T19:54:35.633Z,8.57
2022-11-24T19:57:04.214Z,8.20
2022-11-24T19:59:32.297Z,8.57
2022-11-24T20:02:02.410Z,7.37
2022-11-24T20:04:33.197Z,7.33
2022-11-24T20:07:01.651Z,8.17
2022-11-24T20:09:32.786Z,8.10
2022-11-24T20:12:00.983Z,9.27
2022-11-24T20:14:29.123Z,10.83
2022-11-24T20:16:57.244Z,9.40
2022-11-24T20:19:26.590Z,9.07
2022-11-24T20:21:56.130Z,10.00
2022-11-24T20:24:24.874Z,8.33
2022-11-24T20:26:58.155Z,7.77
2022-11-24T20:29:28.274Z,7.63
2022-11-24T20:31:57.687Z,7.83
2022-11-24T20:34:28.325Z,7.10
2022-11-24T20:36:57.874Z,7.03
2022-11-24T20:39:28.608Z,6.93
2022-11-24T20:41:57.423Z,6.50
2022-11-24T20:44:26.679Z,6.50
2022-11-24T20:46:59.642Z,5.80
2022-11-24T20:49:29.381Z,5.90
2022-11-24T20:51:58.935Z,6.27
2022-11-24T20:54:27.187Z,5.97
2022-11-24T20:56:55.524Z,4.80
2022-11-24T20:59:25.822Z,5.13
2022-11-24T21:01:56.114Z,5.70
2022-11-24T21:04:27.319Z,5.63
2022-11-24T21:06:55.954Z,6.20
2022-11-24T21:09:27.182Z,5.57
2022-11-24T21:11:55.653Z,6.03
2022-11-24T21:14:24.405Z,6.50
2022-11-24T21:16:52.750Z,5.70
2022-11-24T21:19:21.182Z,6.50
2022-11-24T21:21:49.995Z,6.83
2022-11-24T21:24:21.470Z,7.00
2022-11-24T21:26:52.548Z,6.97
2022-11-24T21:29:23.308Z,7.73
2022-11-24T21:31:51.646Z,8.87
2022-11-24T21:34:20.186Z,7.67
2022-11-24T21:36:48.497Z,6.87
2022-11-24T21:39:17.617Z,6.63
2022-11-24T21:41:45.788Z,7.77
2022-11-24T21:44:16.000Z,7.17
2022-11-24T21:46:49.644Z,6.37
2022-11-24T21:49:20.698Z,6.50
2022-11-24T21:51:54.973Z,5.60
2022-11-24T21:54:23.154Z,5.53
2022-11-24T21:56:51.248Z,5.80
2022-11-24T21:59:21.818Z,5.60
2022-11-24T22:01:49.917Z,5.83
2022-11-24T22:04:18.203Z,6.13
2022-11-24T22:06:46.337Z,6.53
2022-11-24T22:09:17.991Z,6.20
2022-11-24T22:11:48.981Z,6.73
2022-11-24T22:14:17.071Z,6.43
2022-11-24T22:16:46.970Z,5.90
2022-11-24T22:19:15.284Z,7.10
2022-11-24T22:21:43.498Z,7.50
2022-11-24T22:24:11.778Z,7.17
2022-11-24T22:26:39.909Z,8.03
2022-11-24T22:29:08.343Z,7.43
2022-11-24T22:31:36.527Z,7.20
2022-11-24T22:34:06.077Z,7.13
2022-11-24T22:36:36.519Z,6.83
2022-11-24T22:39:07.101Z,7.30
2022-11-24T22:41:36.512Z,7.07
2022-11-24T22:44:05.520Z,7.37
2022-11-24T22:46:33.934Z,7.87
2022-11-24T22:49:02.830Z,7.67
2022-11-24T22:51:35.585Z,6.70
2022-11-24T22:54:06.279Z,6.43
2022-11-24T22:56:35.211Z,6.40
2022-11-24T22:59:04.961Z,6.17
2022-11-24T23:01:34.623Z,5.50
2022-11-24T23:04:03.845Z,5.57
2022-11-24T23:06:34.576Z,6.10
2022-11-24T23:09:04.429Z,6.50
2022-11-24T23:11:38.312Z,7.40
2022-11-24T23:14:09.323Z,7.33
2022-11-24T23:16:37.595Z,6.53
2022-11-24T23:19:06.313Z,6.77
2022-11-24T23:21:39.255Z,6.90
2022-11-24T23:24:09.577Z,6.33
2022-11-24T23:26:40.075Z,6.50
2022-11-24T23:29:08.886Z,5.97
2022-11-24T23:31:39.776Z,6.40
2022-11-24T23:34:08.344Z,6.30
2022-11-24T23:36:37.931Z,6.17
2022-11-24T23:39:08.429Z,5.80
2022-11-24T23:41:36.624Z,5.67
2022-11-24T23:44:05.129Z,5.53
2022-11-24T23:46:34.460Z,5.53
2022-11-24T23:49:02.659Z,5.37
2022-11-24T23:51:33.013Z,5.27
2022-11-24T23:54:02.596Z,5.10
2022-11-24T23:56:33.547Z,5.40
2022-11-24T23:59:03.270Z,5.97
